createdAt,value
2023-07-20T00:01:00.596Z,16.97
2023-07-20T00:03:41.157Z,16.93
2023-07-20T00:06:12.871Z,16.90
2023-07-20T00:08:45.065Z,16.91
2023-07-20T00:11:16.848Z,16.91
2023-07-20T00:13:50.167Z,16.91
2023-07-20T00:16:22.234Z,16.89
2023-07-20T00:18:54.327Z,16.86
2023-07-20T00:21:26.800Z,16.86
2023-07-20T00:23:58.963Z,16.83
2023-07-20T00:26:30.968Z,16.81
2023-07-20T00:29:02.665Z,16.78
2023-07-20T00:31:36.133Z,16.78
2023-07-20T00:34:08.489Z,16.77
2023-07-20T00:36:40.241Z,16.76
2023-07-20T00:39:11.833Z,16.77
2023-07-20T00:41:43.518Z,16.78
2023-07-20T00:44:15.430Z,16.80
2023-07-20T00:46:47.860Z,16.88
2023-07-20T00:49:22.387Z,16.90
2023-07-20T00:51:54.656Z,16.86
2023-07-20T00:54:26.869Z,16.81
2023-07-20T00:57:00.002Z,16.79
2023-07-20T00:59:32.144Z,16.79
2023-07-20T01:02:04.021Z,16.79
2023-07-20T01:04:37.595Z,16.77
2023-07-20T01:07:16.881Z,16.73
2023-07-20T01:09:54.905Z,16.71
2023-07-20T01:12:32.627Z,16.65
2023-07-20T01:15:05.695Z,16.59
2023-07-20T01:17:38.515Z,16.53
2023-07-20T01:20:15.982Z,16.48
2023-07-20T01:23:13.810Z,16.42
2023-07-20T01:26:04.507Z,16.36
2023-07-20T01:28:57.076Z,16.30
2023-07-20T01:31:30.327Z,16.25
2023-07-20T01:34:04.491Z,16.21
2023-07-20T01:36:40.103Z,16.18
2023-07-20T01:39:12.979Z,16.19
2023-07-20T01:41:45.237Z,16.24
2023-07-20T01:44:17.859Z,16.23
2023-07-20T01:46:49.661Z,16.18
2023-07-20T01:49:21.855Z,16.19
2023-07-20T01:51:53.512Z,16.17
2023-07-20T01:54:25.129Z,16.12
2023-07-20T01:56:57.007Z,16.03
2023-07-20T01:59:29.331Z,15.98
2023-07-20T02:02:01.085Z,15.94
2023-07-20T02:04:33.288Z,15.89
2023-07-20T02:07:05.176Z,15.84
2023-07-20T02:09:36.895Z,15.78
2023-07-20T02:12:10.022Z,15.75
2023-07-20T02:14:42.329Z,15.75
2023-07-20T02:17:14.752Z,15.81
2023-07-20T02:19:46.507Z,15.87
2023-07-20T02:22:18.432Z,15.92
2023-07-20T02:24:50.569Z,15.96
2023-07-20T02:27:22.190Z,15.98
2023-07-20T02:29:54.229Z,15.99
2023-07-20T02:32:25.950Z,15.98
2023-07-20T02:34:57.825Z,15.98
2023-07-20T02:37:29.489Z,15.94
2023-07-20T02:40:01.979Z,15.92
2023-07-20T02:42:32.088Z,15.89
2023-07-20T02:45:05.436Z,15.87
2023-07-20T02:47:37.393Z,15.82
2023-07-20T02:50:11.185Z,15.77
2023-07-20T02:52:42.832Z,15.77
2023-07-20T02:55:14.746Z,15.77
2023-07-20T02:57:46.470Z,15.76
2023-07-20T03:00:20.465Z,15.76
2023-07-20T03:02:54.150Z,15.77
2023-07-20T03:05:26.440Z,15.76
2023-07-20T03:08:04.323Z,15.77
2023-07-20T03:10:40.407Z,15.78
2023-07-20T03:13:12.073Z,15.79
2023-07-20T03:15:43.986Z,15.77
2023-07-20T03:18:15.672Z,15.73
2023-07-20T03:20:47.797Z,15.71
2023-07-20T03:23:19.460Z,15.73
2023-07-20T03:25:51.218Z,15.77
2023-07-20T03:28:22.862Z,15.83
2023-07-20T03:30:58.135Z,15.87
2023-07-20T03:33:31.246Z,15.89
2023-07-20T03:36:03.241Z,15.90
2023-07-20T03:38:35.021Z,15.88
2023-07-20T03:41:06.687Z,15.88
2023-07-20T03:43:38.542Z,15.89
2023-07-20T03:46:10.275Z,15.90
2023-07-20T03:48:42.211Z,15.89
2023-07-20T03:51:14.166Z,15.88
2023-07-20T03:53:45.963Z,15.87
2023-07-20T03:56:17.754Z,15.86
2023-07-20T03:58:49.601Z,15.85
2023-07-20T04:01:21.832Z,15.83
2023-07-20T04:03:53.906Z,15.81
2023-07-20T04:06:26.024Z,15.79
2023-07-20T04:08:56.671Z,15.75
2023-07-20T04:11:28.784Z,15.73
2023-07-20T04:14:00.442Z,15.71
2023-07-20T04:16:33.634Z,15.69
2023-07-20T04:19:05.317Z,15.65
2023-07-20T04:21:41.884Z,15.64
2023-07-20T04:24:13.857Z,15.67
2023-07-20T04:26:45.465Z,15.68
2023-07-20T04:29:17.419Z,15.73
2023-07-20T04:31:49.403Z,15.75
2023-07-20T04:34:21.140Z,15.79
2023-07-20T04:36:52.738Z,15.80
2023-07-20T04:39:31.695Z,15.83
2023-07-20T04:42:04.958Z,15.84
2023-07-20T04:44:35.201Z,15.86
2023-07-20T04:47:09.710Z,15.88
2023-07-20T04:49:41.855Z,15.89
2023-07-20T04:52:13.590Z,15.91
2023-07-20T04:54:45.254Z,15.91
2023-07-20T04:57:17.089Z,15.92
2023-07-20T04:59:48.668Z,15.91
2023-07-20T05:02:20.490Z,15.89
2023-07-20T05:04:52.284Z,15.88
2023-07-20T05:07:24.033Z,15.85
2023-07-20T05:09:55.715Z,15.84
2023-07-20T05:12:27.440Z,15.82
2023-07-20T05:14:59.440Z,15.82
2023-07-20T05:17:31.612Z,15.82
2023-07-20T05:20:05.123Z,15.84
2023-07-20T05:22:36.721Z,15.92
2023-07-20T05:25:11.365Z,15.98
2023-07-20T05:27:43.415Z,16.03
2023-07-20T05:30:15.771Z,16.09
2023-07-20T05:32:52.143Z,16.14
2023-07-20T05:35:23.948Z,16.18
2023-07-20T05:37:56.407Z,16.21
2023-07-20T05:40:28.226Z,16.23
2023-07-20T05:43:01.840Z,16.23
2023-07-20T05:45:33.492Z,16.23
2023-07-20T05:48:05.388Z,16.23
2023-07-20T05:50:37.150Z,16.24
2023-07-20T05:53:08.840Z,16.25
2023-07-20T05:55:41.335Z,16.25
2023-07-20T05:58:13.170Z,16.24
2023-07-20T06:00:44.890Z,16.23
2023-07-20T06:03:17.591Z,16.23
2023-07-20T06:05:49.358Z,16.22
2023-07-20T06:08:21.322Z,16.23
2023-07-20T06:10:55.494Z,16.22
2023-07-20T06:13:27.815Z,16.21
2023-07-20T06:16:00.100Z,16.21
2023-07-20T06:18:32.540Z,16.28
2023-07-20T06:21:04.292Z,16.34
2023-07-20T06:23:35.953Z,16.39
2023-07-20T06:26:07.914Z,16.45
2023-07-20T06:28:39.602Z,16.51
2023-07-20T06:31:11.277Z,16.57
2023-07-20T06:33:43.158Z,16.63
2023-07-20T06:36:15.339Z,16.70
2023-07-20T06:40:32.699Z,16.77
2023-07-20T06:44:13.436Z,16.92
2023-07-20T06:46:46.287Z,16.99
2023-07-20T06:49:28.005Z,17.06
2023-07-20T06:52:00.504Z,17.15
2023-07-20T06:54:35.663Z,17.24
2023-07-20T07:02:21.340Z,17.46
2023-07-20T07:05:00.568Z,17.51
2023-07-20T07:07:33.281Z,17.59
2023-07-20T07:10:06.359Z,17.65
2023-07-20T07:12:38.306Z,17.70
2023-07-20T07:15:12.230Z,17.77
2023-07-20T07:17:44.762Z,17.83
2023-07-20T07:22:54.304Z,17.90
2023-07-20T07:25:26.206Z,17.93
2023-07-20T07:27:58.197Z,17.96
2023-07-20T07:30:30.825Z,17.99
2023-07-20T07:33:03.284Z,18.02
2023-07-20T07:35:35.120Z,18.07
2023-07-20T07:38:21.065Z,18.13
2023-07-20T07:41:00.439Z,18.19
2023-07-20T07:43:31.954Z,18.24
2023-07-20T07:46:04.997Z,18.30
2023-07-20T07:48:36.879Z,18.36
2023-07-20T07:51:08.494Z,18.43
2023-07-20T07:53:41.292Z,18.50
2023-07-20T07:56:13.433Z,18.57
2023-07-20T07:58:45.087Z,18.65
2023-07-20T08:01:18.036Z,18.72
2023-07-20T08:03:50.380Z,18.77
2023-07-20T08:06:22.499Z,18.82
2023-07-20T08:08:54.618Z,18.88
2023-07-20T08:11:27.125Z,18.95
2023-07-20T08:13:57.505Z,19.01
2023-07-20T08:16:30.237Z,19.07
2023-07-20T08:19:03.864Z,19.11
2023-07-20T08:21:35.705Z,19.12
2023-07-20T08:24:08.785Z,19.14
2023-07-20T08:26:40.398Z,19.17
2023-07-20T08:29:12.234Z,19.20
2023-07-20T08:31:44.258Z,19.23
2023-07-20T08:34:29.807Z,19.28
2023-07-20T08:37:03.802Z,19.36
2023-07-20T08:39:33.883Z,19.42
2023-07-20T08:42:07.416Z,19.47
2023-07-20T08:44:40.294Z,19.52
2023-07-20T08:47:14.695Z,19.56
2023-07-20T08:49:47.302Z,19.61
2023-07-20T08:52:19.073Z,19.67
2023-07-20T08:54:51.489Z,19.73
2023-07-20T08:57:23.347Z,19.78
2023-07-20T08:59:56.528Z,19.84
2023-07-20T09:02:30.727Z,19.62
2023-07-20T09:05:02.533Z,19.95
2023-07-20T09:07:36.624Z,20.03
2023-07-20T09:10:10.105Z,20.09
2023-07-20T09:12:43.285Z,20.11
2023-07-20T09:15:15.425Z,20.14
2023-07-20T09:17:51.203Z,20.16
2023-07-20T09:20:24.058Z,20.20
2023-07-20T09:22:55.704Z,20.23
2023-07-20T09:25:29.906Z,20.24
2023-07-20T09:28:06.389Z,20.20
2023-07-20T09:36:18.945Z,20.03
2023-07-20T09:44:49.021Z,19.87
2023-07-20T09:46:59.584Z,19.87
2023-07-20T09:54:59.706Z,19.83
2023-07-20T09:57:32.257Z,19.81
2023-07-20T10:02:39.072Z,19.77
2023-07-20T10:05:13.535Z,19.75
2023-07-20T10:07:49.342Z,19.75
2023-07-20T10:10:22.102Z,19.74
2023-07-20T10:12:54.601Z,19.74
2023-07-20T10:15:31.170Z,19.74
2023-07-20T10:18:11.680Z,19.77
2023-07-20T10:23:19.532Z,19.94
2023-07-20T10:25:52.596Z,20.00
2023-07-20T10:28:26.042Z,20.03
2023-07-20T10:30:58.032Z,20.05
2023-07-20T10:33:30.391Z,20.07
2023-07-20T10:36:06.706Z,20.15
2023-07-20T10:38:54.292Z,20.28
2023-07-20T10:41:30.338Z,20.43
2023-07-20T10:44:07.047Z,20.58
2023-07-20T10:46:47.500Z,20.73
2023-07-20T10:49:22.544Z,20.88
2023-07-20T10:52:01.325Z,21.02
2023-07-20T10:54:51.026Z,21.19
2023-07-20T10:57:33.705Z,21.35
2023-07-20T11:00:16.724Z,21.39
2023-07-20T11:02:51.723Z,21.38
2023-07-20T11:05:43.742Z,21.32
2023-07-20T11:08:35.918Z,21.20
2023-07-20T11:11:27.353Z,21.06
2023-07-20T11:14:00.908Z,20.95
2023-07-20T11:16:38.688Z,20.85
2023-07-20T11:22:01.651Z,20.66
2023-07-20T11:24:36.112Z,20.55
2023-07-20T11:27:09.466Z,20.50
2023-07-20T11:29:41.932Z,20.45
2023-07-20T11:32:13.511Z,20.35
2023-07-20T11:34:50.977Z,20.24
2023-07-20T11:37:23.041Z,20.15
2023-07-20T11:39:59.653Z,20.07
2023-07-20T11:45:08.599Z,19.96
2023-07-20T11:47:45.796Z,19.94
2023-07-20T11:50:17.564Z,19.96
2023-07-20T11:52:49.628Z,19.98
2023-07-20T11:55:21.923Z,20.02
2023-07-20T11:58:08.818Z,20.04
2023-07-20T12:00:46.372Z,20.14
2023-07-20T12:03:18.131Z,20.23
2023-07-20T12:06:01.259Z,20.32
2023-07-20T12:08:34.756Z,20.46
2023-07-20T12:11:06.371Z,20.55
2023-07-20T12:13:44.135Z,20.61
2023-07-20T12:16:17.075Z,20.70
2023-07-20T12:18:49.004Z,20.81
2023-07-20T12:21:23.016Z,20.91
2023-07-20T12:23:54.614Z,21.05
2023-07-20T12:26:27.191Z,21.17
2023-07-20T12:28:59.125Z,21.30
2023-07-20T12:31:32.801Z,21.38
2023-07-20T12:34:05.430Z,21.47
2023-07-20T12:36:37.041Z,21.58
2023-07-20T12:39:08.923Z,21.60
2023-07-20T12:41:40.491Z,21.73
2023-07-20T12:44:12.459Z,21.80
2023-07-20T12:46:44.451Z,21.85
2023-07-20T12:49:16.171Z,21.86
2023-07-20T12:51:47.743Z,21.87
2023-07-20T12:54:19.500Z,21.86
2023-07-20T12:59:26.425Z,21.79
2023-07-20T13:01:58.079Z,21.73
2023-07-20T13:04:30.226Z,21.66
2023-07-20T13:09:54.306Z,21.58
2023-07-20T13:12:25.877Z,21.55
2023-07-20T13:14:58.049Z,21.54
2023-07-20T13:17:30.092Z,21.46
2023-07-20T13:20:01.861Z,21.48
2023-07-20T13:22:33.472Z,21.45
2023-07-20T13:25:06.125Z,21.44
2023-07-20T13:27:38.956Z,21.42
2023-07-20T13:30:17.779Z,21.45
2023-07-20T13:32:51.147Z,21.47
2023-07-20T13:35:23.314Z,21.47
2023-07-20T13:37:54.980Z,21.48
2023-07-20T13:40:26.592Z,21.48
2023-07-20T13:42:58.922Z,21.50
2023-07-20T13:45:31.359Z,21.53
2023-07-20T13:48:04.105Z,21.55
2023-07-20T13:50:42.000Z,21.59
2023-07-20T13:58:25.505Z,21.72
2023-07-20T14:00:57.256Z,21.76
2023-07-20T14:03:28.989Z,21.85
2023-07-20T14:08:35.855Z,21.97
2023-07-20T14:13:47.679Z,21.95
2023-07-20T14:16:20.687Z,21.91
2023-07-20T14:18:53.574Z,21.87
2023-07-20T14:21:26.032Z,21.85
2023-07-20T14:24:01.712Z,21.85
2023-07-20T14:26:34.341Z,21.83
2023-07-20T14:29:05.335Z,21.81
2023-07-20T14:31:36.950Z,21.79
2023-07-20T14:34:08.860Z,21.77
2023-07-20T14:36:42.791Z,21.75
2023-07-20T14:39:14.661Z,21.74
2023-07-20T14:41:46.641Z,21.73
2023-07-20T14:44:18.482Z,21.73
2023-07-20T14:47:06.615Z,21.73
2023-07-20T14:49:42.233Z,21.73
2023-07-20T14:52:16.860Z,21.71
2023-07-20T14:54:48.689Z,21.70
2023-07-20T14:57:20.588Z,21.69
2023-07-20T14:59:52.392Z,21.70
2023-07-20T15:02:24.305Z,21.71
2023-07-20T15:04:56.862Z,21.74
2023-07-20T15:07:29.061Z,21.74
2023-07-20T15:09:59.619Z,21.73
2023-07-20T15:12:31.373Z,21.70
2023-07-20T15:15:11.414Z,21.67
2023-07-20T15:17:44.401Z,21.65
2023-07-20T15:20:17.434Z,21.62
2023-07-20T15:22:50.821Z,21.61
2023-07-20T15:25:23.550Z,21.58
2023-07-20T15:27:56.936Z,21.56
2023-07-20T15:35:40.022Z,21.48
2023-07-20T15:38:11.622Z,21.45
2023-07-20T15:40:46.413Z,21.37
2023-07-20T15:43:22.044Z,21.42
2023-07-20T15:46:05.248Z,21.42
2023-07-20T15:48:39.478Z,21.42
2023-07-20T15:51:13.457Z,21.42
2023-07-20T15:53:43.671Z,21.41
2023-07-20T15:56:15.532Z,21.41
2023-07-20T15:58:47.756Z,21.41
2023-07-20T16:01:19.483Z,21.41
2023-07-20T16:03:51.394Z,21.41
2023-07-20T16:06:22.934Z,21.40
2023-07-20T16:08:54.874Z,21.40
2023-07-20T16:11:27.765Z,21.40
2023-07-20T16:14:03.133Z,21.39
2023-07-20T16:16:36.174Z,21.39
2023-07-20T16:19:08.274Z,21.39
2023-07-20T16:21:40.254Z,21.38
2023-07-20T16:24:12.425Z,21.39
2023-07-20T16:26:45.100Z,21.39
2023-07-20T16:34:27.089Z,21.34
2023-07-20T16:37:00.755Z,21.33
2023-07-20T16:39:32.416Z,21.33
2023-07-20T16:42:07.001Z,21.33
2023-07-20T16:44:39.629Z,21.34
2023-07-20T16:47:11.762Z,21.33
2023-07-20T16:49:43.754Z,21.33
2023-07-20T16:52:15.507Z,21.32
2023-07-20T16:54:47.062Z,21.30
2023-07-20T16:57:19.524Z,21.28
2023-07-20T16:59:50.229Z,21.26
2023-07-20T17:02:22.681Z,21.23
2023-07-20T17:04:55.330Z,21.22
2023-07-20T17:07:27.443Z,21.20
2023-07-20T17:09:59.472Z,21.19
2023-07-20T17:12:31.105Z,21.19
2023-07-20T17:15:02.903Z,21.17
2023-07-20T17:17:35.260Z,21.16
2023-07-20T17:22:46.471Z,21.13
2023-07-20T17:30:29.556Z,21.10
2023-07-20T17:33:01.393Z,21.08
2023-07-20T17:35:33.508Z,21.05
2023-07-20T17:40:39.828Z,20.98
2023-07-20T17:43:11.490Z,20.95
2023-07-20T17:45:43.415Z,20.93
2023-07-20T17:48:15.101Z,20.92
2023-07-20T17:50:47.423Z,20.91
2023-07-20T17:53:19.013Z,20.90
2023-07-20T17:55:50.672Z,20.89
2023-07-20T17:58:24.264Z,20.87
2023-07-20T18:00:59.582Z,20.85
2023-07-20T18:03:31.656Z,20.84
2023-07-20T18:06:08.823Z,20.82
2023-07-20T18:08:42.277Z,20.81
2023-07-20T18:11:13.959Z,20.79
2023-07-20T18:13:45.532Z,20.78
2023-07-20T18:16:17.113Z,20.76
2023-07-20T18:18:48.679Z,20.74
2023-07-20T18:21:20.568Z,20.71
2023-07-20T18:23:52.448Z,20.68
2023-07-20T18:26:23.982Z,20.65
2023-07-20T18:28:55.518Z,20.62
2023-07-20T18:31:27.641Z,20.52
2023-07-20T18:34:00.936Z,20.57
2023-07-20T18:36:32.508Z,20.55
2023-07-20T18:39:05.640Z,20.52
2023-07-20T18:41:37.638Z,20.49
2023-07-20T18:44:09.445Z,20.46
2023-07-20T18:46:41.114Z,20.40
2023-07-20T18:49:12.699Z,20.39
2023-07-20T18:51:44.268Z,20.35
2023-07-20T18:54:15.996Z,20.30
2023-07-20T18:56:47.598Z,20.24
2023-07-20T18:59:19.531Z,20.18
2023-07-20T19:01:51.303Z,20.13
2023-07-20T19:04:25.911Z,20.08
2023-07-20T19:06:57.750Z,20.00
2023-07-20T19:09:29.746Z,19.95
2023-07-20T19:12:01.768Z,19.89
2023-07-20T19:14:33.407Z,19.82
2023-07-20T19:17:05.630Z,19.76
2023-07-20T19:19:37.883Z,19.70
2023-07-20T19:22:09.526Z,19.65
2023-07-20T19:24:41.803Z,19.60
2023-07-20T19:27:13.705Z,19.52
2023-07-20T19:29:45.446Z,19.45
2023-07-20T19:32:17.387Z,19.37
2023-07-20T19:34:49.280Z,19.29
2023-07-20T19:37:21.140Z,19.22
2023-07-20T19:39:53.102Z,19.15
2023-07-20T19:42:25.579Z,19.07
2023-07-20T19:44:57.704Z,18.98
2023-07-20T19:47:30.200Z,18.91
2023-07-20T19:50:02.538Z,18.84
2023-07-20T19:52:34.202Z,18.77
2023-07-20T19:55:07.074Z,18.71
2023-07-20T19:57:40.466Z,18.65
2023-07-20T20:00:14.411Z,18.59
2023-07-20T20:05:21.825Z,18.49
2023-07-20T20:07:53.812Z,18.44
2023-07-20T20:10:26.681Z,18.39
2023-07-20T20:12:59.091Z,18.34
2023-07-20T20:15:30.727Z,18.30
2023-07-20T20:18:02.500Z,18.26
2023-07-20T20:20:35.735Z,18.23
2023-07-20T20:23:19.518Z,18.19
2023-07-20T20:25:51.784Z,18.14
2023-07-20T20:28:25.417Z,18.09
2023-07-20T20:30:57.778Z,18.03
2023-07-20T20:33:29.543Z,17.99
2023-07-20T20:36:03.308Z,17.94
2023-07-20T20:38:35.498Z,17.91
2023-07-20T20:41:09.074Z,17.88
2023-07-20T20:43:40.677Z,17.85
2023-07-20T20:46:14.323Z,17.81
2023-07-20T20:48:47.119Z,17.77
2023-07-20T20:51:19.142Z,17.73
2023-07-20T20:53:51.204Z,17.70
2023-07-20T20:56:23.423Z,17.67
2023-07-20T20:58:55.280Z,17.64
2023-07-20T21:01:28.400Z,17.61
2023-07-20T21:03:59.950Z,17.57
2023-07-20T21:06:31.617Z,17.54
2023-07-20T21:09:03.393Z,17.50
2023-07-20T21:11:35.134Z,17.47
2023-07-20T21:14:07.004Z,17.43
2023-07-20T21:16:38.952Z,17.38
2023-07-20T21:19:11.864Z,17.35
2023-07-20T21:21:43.912Z,17.31
2023-07-20T21:24:15.519Z,17.26
2023-07-20T21:26:47.003Z,17.22
2023-07-20T21:29:18.632Z,17.17
2023-07-20T21:31:52.586Z,17.12
2023-07-20T21:34:24.713Z,17.07
2023-07-20T21:36:56.592Z,17.03
2023-07-20T21:39:28.197Z,17.00
2023-07-20T21:42:00.077Z,16.96
2023-07-20T21:44:31.820Z,16.93
2023-07-20T21:47:03.730Z,16.89
2023-07-20T21:49:35.337Z,16.86
2023-07-20T21:52:07.986Z,16.82
2023-07-20T21:54:39.574Z,16.79
2023-07-20T21:57:11.416Z,16.76
2023-07-20T21:59:43.073Z,16.72
2023-07-20T22:02:14.953Z,16.71
2023-07-20T22:04:47.356Z,16.70
2023-07-20T22:07:20.260Z,16.69
2023-07-20T22:09:51.987Z,16.69
2023-07-20T22:12:23.859Z,16.68
2023-07-20T22:14:56.913Z,16.65
2023-07-20T22:17:29.541Z,16.63
2023-07-20T22:20:01.116Z,16.59
2023-07-20T22:22:32.756Z,16.57
2023-07-20T22:25:05.409Z,16.56
2023-07-20T22:27:37.505Z,16.54
2023-07-20T22:30:13.159Z,16.53
2023-07-20T22:32:46.471Z,16.51
2023-07-20T22:35:18.179Z,16.49
2023-07-20T22:37:51.425Z,16.46
2023-07-20T22:40:23.331Z,16.43
2023-07-20T22:42:55.107Z,16.41
2023-07-20T22:45:26.697Z,16.39
2023-07-20T22:47:58.321Z,16.37
2023-07-20T22:50:30.529Z,16.34
2023-07-20T22:53:02.852Z,16.31
2023-07-20T22:55:35.130Z,16.27
2023-07-20T22:58:06.675Z,16.23
2023-07-20T23:00:38.329Z,16.20
2023-07-20T23:03:09.995Z,16.17
2023-07-20T23:05:41.876Z,16.14
2023-07-20T23:08:13.549Z,16.11
2023-07-20T23:10:45.359Z,16.08
2023-07-20T23:13:17.512Z,16.06
2023-07-20T23:15:49.298Z,16.03
2023-07-20T23:18:20.926Z,16.03
2023-07-20T23:20:54.829Z,16.00
2023-07-20T23:23:26.419Z,15.98
2023-07-20T23:25:58.775Z,15.96
2023-07-20T23:28:30.450Z,15.94
2023-07-20T23:31:02.747Z,15.93
2023-07-20T23:33:34.342Z,15.91
2023-07-20T23:36:09.591Z,15.90
2023-07-20T23:38:45.916Z,15.88
2023-07-20T23:41:17.546Z,15.85
2023-07-20T23:43:50.467Z,15.82
2023-07-20T23:46:25.070Z,15.83
2023-07-20T23:48:57.216Z,15.82
2023-07-20T23:51:29.247Z,15.81
2023-07-20T23:54:01.119Z,15.80
2023-07-20T23:56:33.477Z,15.79
2023-07-20T23:59:05.426Z,15.77
